createdAt,value
2018-07-17T00:00:38.891Z,10.98
2018-07-17T00:03:06.932Z,13.53
2018-07-17T00:05:34.964Z,8.23
2018-07-17T00:08:03.024Z,10.40
2018-07-17T00:10:31.048Z,11.08
2018-07-17T00:12:59.096Z,11.15
2018-07-17T00:15:27.155Z,13.38
2018-07-17T00:17:55.208Z,20.15
2018-07-17T00:20:23.267Z,8.43
2018-07-17T00:22:51.305Z,9.43
2018-07-17T00:25:19.337Z,13.75
2018-07-17T00:27:47.375Z,8.73
2018-07-17T00:30:15.408Z,8.13
2018-07-17T00:32:43.452Z,9.13
2018-07-17T00:35:11.484Z,7.92
2018-07-17T00:37:39.553Z,10.03
2018-07-17T00:40:07.600Z,6.80
2018-07-17T00:42:35.632Z,7.60
2018-07-17T00:45:03.695Z,8.10
2018-07-17T00:47:31.727Z,9.60
2018-07-17T00:49:59.756Z,10.85
2018-07-17T00:52:27.795Z,10.28
2018-07-17T00:54:55.839Z,8.25
2018-07-17T00:57:23.900Z,9.15
2018-07-17T00:59:51.952Z,7.70
2018-07-17T01:02:25.301Z,9.65
2018-07-17T01:04:58.704Z,8.48
2018-07-17T01:07:32.132Z,5.83
2018-07-17T01:10:05.628Z,10.82
2018-07-17T01:12:32.888Z,6.67
2018-07-17T01:15:04.063Z,9.93
2018-07-17T01:17:32.884Z,9.23
2018-07-17T01:20:00.930Z,12.20
2018-07-17T01:22:28.969Z,8.33
2018-07-17T01:24:57.012Z,10.00
2018-07-17T01:27:25.048Z,6.50
2018-07-17T01:29:53.088Z,10.10
2018-07-17T01:32:21.135Z,10.93
2018-07-17T01:34:49.181Z,7.28
2018-07-17T01:37:17.239Z,6.67
2018-07-17T01:39:45.290Z,7.30
2018-07-17T01:42:13.324Z,10.50
2018-07-17T01:44:41.364Z,12.95
2018-07-17T01:47:09.395Z,8.90
2018-07-17T01:49:37.431Z,7.95
2018-07-17T01:52:05.724Z,10.13
2018-07-17T01:54:33.752Z,8.53
2018-07-17T01:57:01.796Z,9.50
2018-07-17T01:59:29.851Z,6.62
2018-07-17T02:01:57.925Z,11.48
2018-07-17T02:04:25.994Z,8.25
2018-07-17T02:06:54.024Z,7.12
2018-07-17T02:09:22.063Z,9.20
2018-07-17T02:11:50.083Z,8.30
2018-07-17T02:14:18.123Z,6.85
2018-07-17T02:16:46.150Z,9.20
2018-07-17T02:19:14.199Z,6.92
2018-07-17T02:21:42.241Z,10.95
2018-07-17T02:24:10.282Z,9.40
2018-07-17T02:26:38.311Z,6.62
2018-07-17T02:29:06.365Z,9.13
2018-07-17T02:31:34.431Z,15.23
2018-07-17T02:34:02.496Z,8.80
2018-07-17T02:36:30.587Z,10.08
2018-07-17T02:38:58.560Z,14.58
2018-07-17T02:41:26.604Z,7.85
2018-07-17T02:43:54.640Z,10.93
2018-07-17T02:46:22.696Z,6.80
2018-07-17T02:48:50.724Z,9.23
2018-07-17T02:51:18.755Z,7.40
2018-07-17T02:53:46.792Z,8.23
2018-07-17T02:56:14.825Z,11.65
2018-07-17T02:58:42.866Z,10.35
2018-07-17T03:01:11.011Z,7.72
2018-07-17T03:03:39.054Z,8.65
2018-07-17T03:06:07.139Z,11.18
2018-07-17T03:08:35.176Z,9.48
2018-07-17T03:11:03.228Z,6.45
2018-07-17T03:13:31.249Z,8.35
2018-07-17T03:15:59.272Z,8.08
2018-07-17T03:18:27.331Z,8.40
2018-07-17T03:20:55.407Z,8.13
2018-07-17T03:23:23.455Z,11.22
2018-07-17T03:25:51.502Z,10.45
2018-07-17T03:28:19.554Z,10.32
2018-07-17T03:30:47.580Z,8.13
2018-07-17T03:33:15.626Z,9.70
2018-07-17T03:35:43.661Z,8.35
2018-07-17T03:38:11.688Z,8.18
2018-07-17T03:40:39.736Z,7.37
2018-07-17T03:43:07.765Z,8.95
2018-07-17T03:45:35.796Z,10.30
2018-07-17T03:48:03.867Z,7.00
2018-07-17T03:50:31.908Z,10.15
2018-07-17T03:52:59.952Z,8.70
2018-07-17T03:55:34.812Z,10.70
2018-07-17T03:58:02.831Z,8.70
2018-07-17T04:00:30.876Z,8.68
2018-07-17T04:02:58.969Z,6.83
2018-07-17T04:05:26.948Z,9.50
2018-07-17T04:07:54.972Z,7.33
2018-07-17T04:10:23.012Z,9.20
2018-07-17T04:12:51.035Z,9.15
2018-07-17T04:15:19.072Z,7.53
2018-07-17T04:17:47.107Z,9.50
2018-07-17T04:20:15.155Z,5.60
2018-07-17T04:22:43.207Z,7.50
2018-07-17T04:25:11.307Z,10.25
2018-07-17T04:27:39.332Z,8.80
2018-07-17T04:30:07.420Z,7.70
2018-07-17T04:32:35.460Z,8.50
2018-07-17T04:35:03.496Z,6.35
2018-07-17T04:37:31.517Z,8.15
2018-07-17T04:39:59.558Z,9.08
2018-07-17T04:42:27.578Z,6.90
2018-07-17T04:44:55.637Z,14.73
2018-07-17T04:47:23.663Z,8.55
2018-07-17T04:49:51.708Z,6.12
2018-07-17T04:52:19.748Z,11.05
2018-07-17T04:54:47.793Z,7.08
2018-07-17T04:57:15.816Z,9.03
2018-07-17T04:59:43.879Z,11.03
2018-07-17T05:02:11.924Z,7.15
2018-07-17T05:04:39.983Z,12.25
2018-07-17T05:07:08.021Z,10.25
2018-07-17T05:09:36.061Z,8.03
2018-07-17T05:12:04.095Z,12.23
2018-07-17T05:14:32.143Z,11.53
2018-07-17T05:17:00.173Z,9.75
2018-07-17T05:19:28.202Z,11.33
2018-07-17T05:21:56.251Z,13.65
2018-07-17T05:24:24.281Z,10.32
2018-07-17T05:26:52.324Z,12.33
2018-07-17T05:29:20.366Z,16.12
2018-07-17T05:31:48.420Z,13.28
2018-07-17T05:34:16.432Z,18.77
2018-07-17T05:36:44.472Z,10.88
2018-07-17T05:39:12.540Z,15.60
2018-07-17T05:41:40.587Z,14.05
2018-07-17T05:44:08.822Z,14.18
2018-07-17T05:46:36.869Z,14.03
2018-07-17T05:49:04.905Z,12.03
2018-07-17T05:51:32.959Z,15.15
2018-07-17T05:54:00.999Z,16.97
2018-07-17T05:56:29.044Z,21.75
2018-07-17T05:58:57.156Z,11.45
2018-07-17T06:01:25.209Z,11.25
2018-07-17T06:03:53.248Z,10.85
2018-07-17T06:06:21.301Z,17.10
2018-07-17T06:08:49.332Z,15.88
2018-07-17T06:11:17.393Z,16.67
2018-07-17T06:13:45.432Z,15.35
2018-07-17T06:16:13.484Z,22.65
2018-07-17T06:18:41.553Z,13.70
2018-07-17T06:21:09.683Z,13.55
2018-07-17T06:23:37.712Z,19.85
2018-07-17T06:26:06.165Z,11.73
2018-07-17T06:28:34.291Z,13.05
2018-07-17T06:31:02.336Z,14.90
2018-07-17T06:33:30.380Z,20.95
2018-07-17T06:35:58.435Z,19.85
2018-07-17T06:38:26.483Z,17.55
2018-07-17T06:40:54.527Z,20.08
2018-07-17T06:43:22.572Z,20.20
2018-07-17T06:45:50.619Z,18.32
2018-07-17T06:48:18.680Z,18.80
2018-07-17T06:50:46.806Z,19.62
2018-07-17T06:53:14.787Z,12.70
2018-07-17T06:55:42.832Z,18.55
2018-07-17T06:58:10.899Z,17.25
2018-07-17T07:00:38.979Z,21.12
2018-07-17T07:03:07.019Z,20.02
2018-07-17T07:05:35.255Z,17.45
2018-07-17T07:08:03.284Z,20.75
2018-07-17T07:10:31.348Z,14.50
2018-07-17T07:12:59.408Z,28.75
2018-07-17T07:15:27.475Z,27.13
2018-07-17T07:17:55.526Z,25.75
2018-07-17T07:20:23.592Z,18.35
2018-07-17T07:22:51.673Z,19.65
2018-07-17T07:25:19.707Z,26.50
2018-07-17T07:27:47.813Z,25.37
2018-07-17T07:30:15.848Z,30.43
2018-07-17T07:32:43.909Z,29.45
2018-07-17T07:35:11.953Z,25.32
2018-07-17T07:37:39.996Z,40.65
2018-07-17T07:40:08.044Z,24.63
2018-07-17T07:42:36.092Z,22.85
2018-07-17T07:45:04.160Z,22.67
2018-07-17T07:47:32.227Z,21.15
2018-07-17T07:50:00.264Z,26.97
2018-07-17T07:52:28.312Z,31.00
2018-07-17T07:54:56.348Z,34.15
2018-07-17T07:57:24.396Z,31.20
2018-07-17T07:59:52.436Z,39.58
2018-07-17T08:02:20.484Z,25.68
2018-07-17T08:04:48.536Z,32.63
2018-07-17T08:07:16.592Z,46.00
2018-07-17T08:09:44.671Z,45.17
2018-07-17T08:12:12.773Z,49.40
2018-07-17T08:14:40.764Z,49.40
2018-07-17T08:17:08.815Z,39.15
2018-07-17T08:19:36.859Z,43.23
2018-07-17T08:22:04.919Z,43.25
2018-07-17T08:24:32.996Z,41.05
2018-07-17T08:27:01.060Z,35.63
2018-07-17T08:29:29.114Z,41.20
2018-07-17T08:31:57.171Z,43.78
2018-07-17T08:34:25.232Z,51.80
2018-07-17T08:36:53.300Z,51.37
2018-07-17T08:39:21.340Z,60.78
2018-07-17T08:41:49.412Z,65.10
2018-07-17T08:44:17.487Z,55.00
2018-07-17T08:46:45.563Z,53.00
2018-07-17T08:49:13.631Z,62.75
2018-07-17T08:51:41.705Z,70.20
2018-07-17T08:54:09.844Z,64.95
2018-07-17T08:56:37.907Z,67.17
2018-07-17T08:59:06.039Z,77.33
2018-07-17T09:01:34.318Z,91.10
2018-07-17T09:04:03.385Z,77.83
2018-07-17T09:06:31.448Z,83.87
2018-07-17T09:09:00.367Z,88.63
2018-07-17T09:11:28.448Z,66.37
2018-07-17T09:13:56.504Z,65.50
2018-07-17T09:16:27.064Z,77.33
2018-07-17T09:18:55.442Z,78.97
2018-07-17T09:24:34.499Z,90.97
2018-07-17T09:27:02.572Z,69.47
2018-07-17T09:29:30.612Z,75.00
2018-07-17T09:31:58.647Z,64.20
2018-07-17T09:34:26.698Z,82.07
2018-07-17T09:36:54.907Z,107.70
2018-07-17T09:39:22.960Z,91.83
2018-07-17T09:41:50.992Z,85.37
2018-07-17T09:44:19.079Z,110.53
2018-07-17T09:46:47.095Z,69.97
2018-07-17T09:49:15.136Z,87.10
2018-07-17T09:51:43.172Z,66.03
2018-07-17T09:54:11.282Z,77.33
2018-07-17T09:56:39.272Z,74.67
2018-07-17T09:59:07.337Z,81.70
2018-07-17T10:01:40.690Z,56.30
2018-07-17T10:04:08.743Z,59.00
2018-07-17T10:06:36.770Z,80.10
2018-07-17T10:09:06.369Z,85.40
2018-07-17T10:11:34.416Z,123.80
2018-07-17T10:14:02.473Z,90.53
2018-07-17T10:16:30.532Z,95.03
2018-07-17T10:18:58.580Z,93.27
2018-07-17T10:21:26.628Z,99.20
2018-07-17T10:23:54.748Z,81.20
2018-07-17T10:26:22.818Z,88.00
2018-07-17T10:28:50.839Z,99.07
2018-07-17T10:31:18.880Z,90.57
2018-07-17T10:33:46.929Z,97.23
2018-07-17T10:36:14.956Z,76.50
2018-07-17T10:38:43.061Z,95.37
2018-07-17T10:41:11.076Z,104.17
2018-07-17T10:43:39.124Z,85.30
2018-07-17T10:46:07.400Z,89.20
2018-07-17T10:48:35.472Z,107.00
2018-07-17T10:51:03.503Z,96.57
2018-07-17T10:53:31.563Z,84.97
2018-07-17T10:55:59.612Z,83.63
2018-07-17T10:58:27.678Z,97.67
2018-07-17T11:00:55.742Z,152.17
2018-07-17T11:03:23.824Z,81.57
2018-07-17T11:05:51.866Z,81.63
2018-07-17T11:08:19.992Z,89.23
2018-07-17T11:10:47.965Z,99.73
2018-07-17T11:13:16.020Z,97.83
2018-07-17T11:15:44.060Z,89.90
2018-07-17T11:18:12.119Z,88.57
2018-07-17T11:20:40.164Z,104.97
2018-07-17T11:23:08.231Z,74.37
2018-07-17T11:25:36.277Z,78.53
2018-07-17T11:28:04.328Z,80.57
2018-07-17T11:30:32.408Z,101.27
2018-07-17T11:33:00.467Z,112.87
2018-07-17T11:35:28.543Z,97.97
2018-07-17T11:37:56.627Z,84.23
2018-07-17T11:40:24.681Z,82.70
2018-07-17T11:42:52.956Z,65.53
2018-07-17T11:45:20.996Z,83.00
2018-07-17T11:47:49.053Z,89.27
2018-07-17T11:50:17.142Z,68.13
2018-07-17T11:52:45.178Z,64.43
2018-07-17T11:55:13.259Z,61.30
2018-07-17T11:57:41.316Z,52.90
2018-07-17T12:00:09.380Z,47.53
2018-07-17T12:02:37.440Z,61.13
2018-07-17T12:05:05.528Z,51.13
2018-07-17T12:07:33.583Z,69.73
2018-07-17T12:10:01.629Z,93.40
2018-07-17T12:12:29.680Z,108.20
2018-07-17T12:14:57.739Z,97.97
2018-07-17T12:17:25.795Z,87.47
2018-07-17T12:19:53.919Z,91.27
2018-07-17T12:22:21.932Z,114.80
2018-07-17T12:24:50.001Z,88.70
2018-07-17T12:27:18.052Z,94.83
2018-07-17T12:29:46.149Z,99.97
2018-07-17T12:32:14.212Z,127.80
2018-07-17T12:34:42.268Z,121.57
2018-07-17T12:37:10.391Z,125.50
2018-07-17T12:39:38.444Z,134.63
2018-07-17T12:42:06.528Z,131.20
2018-07-17T12:44:34.612Z,114.30
2018-07-17T12:47:02.650Z,94.27
2018-07-17T12:49:30.696Z,130.33
2018-07-17T12:51:58.751Z,144.50
2018-07-17T12:54:26.827Z,115.70
2018-07-17T12:56:54.861Z,97.53
2018-07-17T12:59:22.920Z,114.07
2018-07-17T13:01:50.980Z,125.53
2018-07-17T13:04:19.066Z,153.83
2018-07-17T13:06:47.124Z,136.07
2018-07-17T13:09:15.205Z,124.40
2018-07-17T13:11:43.247Z,91.40
2018-07-17T13:14:11.304Z,128.83
2018-07-17T13:16:39.386Z,134.00
2018-07-17T13:19:07.496Z,146.07
2018-07-17T13:21:35.556Z,113.37
2018-07-17T13:24:03.611Z,166.40
2018-07-17T13:26:31.671Z,184.23
2018-07-17T13:28:59.721Z,147.70
2018-07-17T13:31:27.789Z,176.63
2018-07-17T13:33:55.862Z,185.93
2018-07-17T13:36:23.939Z,155.27
2018-07-17T13:38:51.983Z,153.17
2018-07-17T13:41:20.060Z,144.47
2018-07-17T13:43:48.194Z,154.90
2018-07-17T13:46:16.204Z,176.73
2018-07-17T13:48:44.275Z,140.27
2018-07-17T13:51:12.345Z,177.63
2018-07-17T13:53:40.432Z,172.60
2018-07-17T13:56:08.573Z,170.00
2018-07-17T13:58:36.571Z,215.83
2018-07-17T14:01:04.660Z,161.57
2018-07-17T14:03:32.717Z,182.70
2018-07-17T14:06:00.766Z,122.67
2018-07-17T14:08:28.845Z,191.73
2018-07-17T14:10:56.927Z,166.73
2018-07-17T14:13:24.988Z,162.07
2018-07-17T14:15:53.072Z,192.50
2018-07-17T14:18:21.116Z,175.90
2018-07-17T14:20:49.195Z,165.53
2018-07-17T14:23:17.263Z,121.90
2018-07-17T14:25:45.341Z,155.70
2018-07-17T14:28:13.396Z,110.97
2018-07-17T14:30:41.464Z,170.43
2018-07-17T14:33:09.520Z,155.33
2018-07-17T14:35:37.579Z,128.00
2018-07-17T14:38:05.644Z,135.77
2018-07-17T14:40:33.704Z,146.60
2018-07-17T14:43:01.744Z,104.83
2018-07-17T14:45:29.800Z,123.43
2018-07-17T14:47:57.844Z,115.10
2018-07-17T14:50:25.899Z,110.73
2018-07-17T14:52:53.953Z,154.90
2018-07-17T14:55:22.004Z,110.80
2018-07-17T14:57:50.060Z,191.67
2018-07-17T15:00:18.191Z,127.23
2018-07-17T15:02:46.209Z,146.63
2018-07-17T15:05:14.240Z,136.43
2018-07-17T15:07:42.307Z,137.83
2018-07-17T15:10:10.402Z,144.03
2018-07-17T15:12:38.448Z,138.30
2018-07-17T15:15:06.944Z,133.77
2018-07-17T15:17:34.996Z,172.87
2018-07-17T15:20:03.053Z,181.43
2018-07-17T15:22:31.143Z,124.63
2018-07-17T15:24:59.195Z,175.30
2018-07-17T15:27:27.249Z,158.97
2018-07-17T15:29:55.304Z,134.70
2018-07-17T15:32:23.383Z,156.23
2018-07-17T15:34:51.471Z,148.10
2018-07-17T15:37:19.528Z,140.70
2018-07-17T15:39:47.568Z,178.00
2018-07-17T15:42:15.643Z,175.00
2018-07-17T15:44:43.695Z,150.60
2018-07-17T15:47:12.072Z,146.47
2018-07-17T15:49:40.137Z,152.67
2018-07-17T15:52:08.188Z,160.50
2018-07-17T15:54:36.244Z,132.63
2018-07-17T15:57:04.329Z,124.30
2018-07-17T15:59:32.408Z,178.10
2018-07-17T16:02:00.467Z,150.17
2018-07-17T16:04:28.524Z,142.80
2018-07-17T16:06:56.640Z,135.07
2018-07-17T16:09:31.423Z,135.17
2018-07-17T16:11:59.484Z,134.90
2018-07-17T16:14:27.688Z,103.63
2018-07-17T16:16:55.604Z,124.77
2018-07-17T16:19:23.656Z,129.73
2018-07-17T16:21:51.756Z,147.30
2018-07-17T16:24:19.796Z,165.43
2018-07-17T16:26:47.849Z,142.03
2018-07-17T16:29:15.893Z,117.53
2018-07-17T16:31:43.952Z,173.00
2018-07-17T16:34:12.000Z,120.53
2018-07-17T16:36:40.102Z,135.90
2018-07-17T16:39:08.295Z,90.63
2018-07-17T16:41:36.347Z,131.83
2018-07-17T16:44:04.407Z,94.00
2018-07-17T16:46:32.495Z,124.90
2018-07-17T16:49:00.556Z,95.63
2018-07-17T16:51:28.600Z,92.47
2018-07-17T16:53:57.232Z,111.77
2018-07-17T16:56:25.515Z,101.60
2018-07-17T16:58:53.559Z,86.93
2018-07-17T17:01:21.966Z,105.30
2018-07-17T17:03:49.996Z,77.10
2018-07-17T17:06:18.046Z,77.53
2018-07-17T17:08:46.099Z,103.13
2018-07-17T17:11:14.164Z,80.13
2018-07-17T17:13:42.235Z,56.57
2018-07-17T17:16:10.276Z,74.40
2018-07-17T17:18:38.343Z,64.10
2018-07-17T17:21:06.424Z,73.07
2018-07-17T17:23:34.505Z,50.73
2018-07-17T17:26:02.560Z,65.55
2018-07-17T17:28:30.615Z,75.90
2018-07-17T17:30:58.691Z,72.77
2018-07-17T17:33:26.736Z,63.77
2018-07-17T17:35:54.800Z,86.40
2018-07-17T17:38:22.900Z,73.90
2018-07-17T17:40:50.967Z,87.45
2018-07-17T17:43:19.012Z,81.97
2018-07-17T17:45:47.059Z,89.83
2018-07-17T17:48:15.120Z,102.02
2018-07-17T17:50:43.182Z,87.42
2018-07-17T17:53:11.245Z,88.65
2018-07-17T17:55:39.296Z,68.47
2018-07-17T17:58:07.660Z,68.17
2018-07-17T18:00:35.704Z,61.60
2018-07-17T18:03:03.780Z,84.07
2018-07-17T18:05:31.843Z,82.33
2018-07-17T18:07:59.896Z,84.03
2018-07-17T18:10:27.944Z,79.37
2018-07-17T18:12:56.005Z,55.90
2018-07-17T18:15:24.047Z,56.35
2018-07-17T18:17:52.092Z,79.15
2018-07-17T18:20:20.132Z,65.75
2018-07-17T18:22:48.468Z,64.35
2018-07-17T18:25:16.495Z,78.28
2018-07-17T18:27:44.556Z,66.75
2018-07-17T18:30:12.597Z,68.30
2018-07-17T18:32:40.659Z,50.63
2018-07-17T18:35:08.714Z,68.50
2018-07-17T18:37:36.748Z,46.02
2018-07-17T18:40:04.824Z,40.15
2018-07-17T18:42:32.877Z,33.85
2018-07-17T18:45:00.935Z,55.28
2018-07-17T18:47:28.980Z,49.53
2018-07-17T18:50:12.311Z,41.10
2018-07-17T18:52:25.089Z,46.85
2018-07-17T18:54:53.131Z,48.33
2018-07-17T18:57:21.188Z,53.33
2018-07-17T18:59:49.311Z,61.95
2018-07-17T19:02:17.275Z,48.68
2018-07-17T19:04:45.331Z,55.30
2018-07-17T19:07:13.368Z,48.98
2018-07-17T19:09:41.414Z,58.48
2018-07-17T19:12:09.457Z,37.93
2018-07-17T19:14:37.731Z,43.78
2018-07-17T19:17:05.865Z,38.83
2018-07-17T19:19:33.924Z,53.73
2018-07-17T19:22:01.960Z,44.23
2018-07-17T19:24:37.045Z,36.20
2018-07-17T19:27:04.999Z,31.23
2018-07-17T19:29:33.048Z,28.00
2018-07-17T19:32:01.099Z,26.85
2018-07-17T19:34:29.454Z,32.30
2018-07-17T19:36:57.489Z,30.37
2018-07-17T19:39:25.532Z,28.05
2018-07-17T19:41:53.593Z,22.30
2018-07-17T19:44:21.677Z,18.05
2018-07-17T19:46:49.748Z,26.97
2018-07-17T19:49:17.788Z,32.00
2018-07-17T19:51:45.823Z,21.55
2018-07-17T19:54:13.872Z,28.70
2018-07-17T19:56:41.930Z,18.60
2018-07-17T19:59:09.992Z,27.55
2018-07-17T20:01:38.052Z,28.17
2018-07-17T20:04:06.396Z,32.00
2018-07-17T20:06:34.440Z,25.70
2018-07-17T20:09:02.508Z,21.48
2018-07-17T20:11:30.580Z,18.32
2018-07-17T20:13:58.640Z,20.92
2018-07-17T20:16:26.688Z,20.48
2018-07-17T20:18:54.739Z,24.45
2018-07-17T20:21:22.783Z,22.60
2018-07-17T20:23:50.836Z,22.05
2018-07-17T20:26:18.883Z,23.67
2018-07-17T20:28:46.978Z,22.02
2018-07-17T20:31:15.078Z,20.95
2018-07-17T20:33:43.187Z,19.87
2018-07-17T20:36:11.212Z,24.55
2018-07-17T20:38:39.247Z,19.70
2018-07-17T20:41:07.356Z,24.87
2018-07-17T20:43:35.392Z,23.65
2018-07-17T20:46:03.478Z,22.55
2018-07-17T20:48:31.516Z,23.67
2018-07-17T20:50:59.591Z,20.50
2018-07-17T20:53:27.636Z,16.77
2018-07-17T20:55:55.723Z,13.88
2018-07-17T20:58:23.791Z,27.22
2018-07-17T21:00:51.893Z,18.30
2018-07-17T21:03:19.936Z,22.45
2018-07-17T21:05:48.000Z,18.98
2018-07-17T21:08:16.912Z,14.43
2018-07-17T21:10:44.967Z,19.30
2018-07-17T21:13:13.136Z,17.25
2018-07-17T21:15:41.060Z,22.98
2018-07-17T21:18:09.087Z,22.17
2018-07-17T21:20:37.159Z,21.60
2018-07-17T21:23:05.211Z,24.55
2018-07-17T21:25:33.284Z,20.05
2018-07-17T21:28:01.363Z,16.27
2018-07-17T21:30:29.407Z,13.00
2018-07-17T21:32:57.480Z,14.23
2018-07-17T21:35:25.524Z,16.05
2018-07-17T21:37:53.561Z,16.05
2018-07-17T21:40:21.648Z,17.27
2018-07-17T21:42:49.685Z,18.77
2018-07-17T21:45:17.735Z,21.05
2018-07-17T21:47:45.775Z,22.48
2018-07-17T21:50:13.827Z,23.83
2018-07-17T21:52:41.880Z,21.75
2018-07-17T21:55:09.928Z,21.95
2018-07-17T21:57:37.982Z,21.05
2018-07-17T22:00:07.928Z,22.40
2018-07-17T22:02:35.984Z,24.87
2018-07-17T22:05:04.039Z,23.25
2018-07-17T22:07:32.080Z,33.08
2018-07-17T22:10:00.121Z,16.67
2018-07-17T22:12:28.160Z,34.95
2018-07-17T22:14:56.204Z,27.37
2018-07-17T22:17:24.237Z,24.52
2018-07-17T22:19:52.309Z,20.60
2018-07-17T22:22:20.386Z,16.05
2018-07-17T22:24:48.420Z,17.70
2018-07-17T22:27:16.507Z,13.00
2018-07-17T22:29:44.542Z,15.60
2018-07-17T22:32:12.615Z,20.57
2018-07-17T22:34:40.727Z,22.25
2018-07-17T22:37:08.842Z,19.17
2018-07-17T22:39:36.903Z,19.67
2018-07-17T22:42:04.971Z,20.60
2018-07-17T22:44:33.008Z,19.37
2018-07-17T22:47:01.056Z,16.25
2018-07-17T22:49:29.097Z,19.20
2018-07-17T22:51:57.167Z,14.35
2018-07-17T22:54:25.223Z,12.15
2018-07-17T22:56:53.291Z,11.90
2018-07-17T22:59:21.631Z,17.35
2018-07-17T23:01:49.699Z,14.30
2018-07-17T23:04:18.066Z,18.17
2018-07-17T23:06:46.164Z,20.20
2018-07-17T23:09:14.220Z,21.42
2018-07-17T23:11:42.285Z,19.90
2018-07-17T23:14:10.335Z,21.65
2018-07-17T23:16:38.435Z,17.05
2018-07-17T23:19:06.773Z,15.00
2018-07-17T23:21:34.833Z,15.32
2018-07-17T23:24:02.876Z,18.10
2018-07-17T23:26:31.105Z,18.70
2018-07-17T23:28:59.248Z,16.07
2018-07-17T23:31:27.312Z,16.95
2018-07-17T23:33:55.404Z,20.65
2018-07-17T23:36:23.525Z,20.05
2018-07-17T23:38:51.541Z,24.92
2018-07-17T23:41:19.604Z,19.32
2018-07-17T23:43:47.640Z,19.75
2018-07-17T23:46:15.715Z,24.10
2018-07-17T23:48:43.756Z,30.20
2018-07-17T23:51:11.812Z,25.45
2018-07-17T23:53:39.852Z,29.10
2018-07-17T23:56:07.909Z,32.30
2018-07-17T23:58:36.014Z,18.00
